Time;durP1;ratioP1;P1;durP2;ratioP2;P2;SDS_P1;SDS_P2;PMS_P1;PMS_P2;Temp;Humidity;BMP_temperature;BMP_pressure;BME280_temperature;BME280_humidity;BME280_pressure;Samples;Min_cycle;Max_cycle;Signal;HPM_P1;HPM_P2
2023/01/26 00:02:23;;;;;;;1.07;1.07;;;;;;;1.88;100.00;101193.06;5110301;28;20194;-72
2023/01/26 00:04:50;;;;;;;0.70;0.70;;;;;;;1.79;100.00;101192.44;5108907;28;20668;-72
2023/01/26 00:07:17;;;;;;;0.80;0.80;;;;;;;1.69;100.00;101178.16;5090201;28;20724;-71
2023/01/26 00:09:44;;;;;;;0.70;0.70;;;;;;;1.81;100.00;101196.88;5090436;28;20625;-72
2023/01/26 00:12:10;;;;;;;0.90;0.90;;;;;;;1.58;100.00;101175.63;5090299;28;20194;-71
2023/01/26 00:14:49;;;;;;;2.17;2.07;;;;;;;1.70;100.00;101177.38;5090487;28;20588;-72
2023/01/26 00:17:26;;;;;;;1.10;1.10;;;;;;;1.98;100.00;101185.22;5090528;28;20296;-71
2023/01/26 00:19:56;;;;;;;0.70;0.70;;;;;;;1.91;100.00;101183.94;5103503;28;20205;-72
2023/01/26 00:22:27;;;;;;;0.80;0.80;;;;;;;1.84;100.00;101180.84;5110202;28;20573;-71
2023/01/26 00:24:53;;;;;;;0.70;0.70;;;;;;;1.85;100.00;101187.75;5108483;28;20281;-72
2023/01/26 00:27:20;;;;;;;0.63;0.63;;;;;;;1.89;100.00;101187.16;5091177;28;20229;-72
2023/01/26 00:29:47;;;;;;;0.73;0.73;;;;;;;1.88;100.00;101181.16;5091241;28;20194;-72
2023/01/26 00:32:13;;;;;;;0.63;0.63;;;;;;;1.84;100.00;101178.28;5106076;28;20217;-72
2023/01/26 00:34:40;;;;;;;0.87;0.87;;;;;;;1.74;100.00;101188.69;5105171;28;20649;-71
2023/01/26 00:37:08;;;;;;;1.43;1.43;;;;;;;1.80;100.00;101179.75;5094448;28;20222;-73
2023/01/26 00:39:35;;;;;;;1.17;1.17;;;;;;;1.87;100.00;101176.81;5042160;28;20205;-72
2023/01/26 00:42:09;;;;;;;1.00;1.00;;;;;;;1.73;100.00;101169.91;5100804;28;20206;-72
2023/01/26 00:44:40;;;;;;;0.77;0.77;;;;;;;1.82;100.00;101167.94;5106968;28;20700;-73
2023/01/26 00:47:11;;;;;;;0.90;0.90;;;;;;;1.61;100.00;101125.63;5112810;28;20217;-72
2023/01/26 00:49:38;;;;;;;0.70;0.70;;;;;;;1.72;100.00;101165.56;5113913;28;20197;-73
2023/01/26 00:52:06;;;;;;;0.70;0.70;;;;;;;1.53;100.00;101124.25;5113951;28;20594;-73
2023/01/26 00:54:34;;;;;;;0.80;0.80;;;;;;;1.76;100.00;101146.22;5113441;28;20273;-72
2023/01/26 00:57:01;;;;;;;0.43;0.43;;;;;;;1.62;100.00;101127.41;5094937;28;20198;-72
2023/01/26 00:59:28;;;;;;;0.50;0.50;;;;;;;1.07;100.00;101025.72;5099206;28;20206;-72
2023/01/26 01:01:55;;;;;;;0.90;0.90;;;;;;;1.52;100.00;101121.56;5094396;28;20198;-71
2023/01/26 01:04:22;;;;;;;0.70;0.70;;;;;;;1.48;100.00;101118.81;5093072;28;20255;-72
2023/01/26 01:06:49;;;;;;;0.70;0.70;;;;;;;1.59;100.00;101116.97;5069542;28;20712;-72
2023/01/26 01:09:15;;;;;;;0.80;0.80;;;;;;;1.60;100.00;101112.75;5110717;28;20189;-72
2023/01/26 01:11:44;;;;;;;0.80;0.80;;;;;;;1.56;100.00;101105.66;5113903;28;20209;-72
2023/01/26 01:14:12;;;;;;;0.70;0.70;;;;;;;1.54;100.00;101102.09;5113159;28;20202;-72
2023/01/26 01:16:39;;;;;;;0.80;0.80;;;;;;;1.44;100.00;101086.16;5097873;28;20201;-71
2023/01/26 01:19:06;;;;;;;1.90;1.80;;;;;;;1.57;100.00;101097.22;5100235;28;20186;-72
2023/01/26 01:21:35;;;;;;;2.27;2.17;;;;;;;1.61;100.00;101094.06;5113159;28;20202;-72
2023/01/26 01:24:02;;;;;;;0.70;0.70;;;;;;;1.59;100.00;101095.63;5113272;28;20292;-73
2023/01/26 01:26:29;;;;;;;1.50;1.50;;;;;;;1.74;100.00;101097.56;5099361;28;20202;-72
2023/01/26 01:28:57;;;;;;;0.60;0.60;;;;;;;1.11;100.00;100981.75;5093128;28;20657;-72
2023/01/26 01:31:24;;;;;;;1.20;1.20;;;;;;;1.62;100.00;101093.28;5107925;28;20197;-71
2023/01/26 01:33:53;;;;;;;0.70;0.70;;;;;;;1.76;100.00;101089.97;5103615;28;20261;-72
2023/01/26 01:36:20;;;;;;;0.70;0.70;;;;;;;1.43;100.00;101048.63;5100246;28;20238;-72
2023/01/26 01:38:47;;;;;;;1.27;1.27;;;;;;;1.58;100.00;101068.31;5097908;28;20541;-72
2023/01/26 01:41:15;;;;;;;0.70;0.70;;;;;;;1.64;100.00;101081.50;5111969;28;20271;-73
2023/01/26 01:43:42;;;;;;;0.83;0.83;;;;;;;1.47;100.00;101058.25;5112370;28;20201;-72
2023/01/26 01:46:20;;;;;;;0.60;0.60;;;;;;;1.46;100.00;101063.28;5101851;28;20202;-72
2023/01/26 01:48:53;;;;;;;0.83;0.83;;;;;;;1.55;100.00;101060.44;5105577;28;20640;-73
2023/01/26 01:51:23;;;;;;;0.70;0.70;;;;;;;1.71;100.00;101076.03;5103275;28;20233;-73
2023/01/26 01:53:52;;;;;;;0.60;0.60;;;;;;;1.87;100.00;101089.00;5092424;28;20198;-72
2023/01/26 01:56:23;;;;;;;0.80;0.80;;;;;;;1.47;100.00;101057.38;5102996;28;20281;-73
2023/01/26 01:58:53;;;;;;;0.60;0.60;;;;;;;1.76;100.00;101087.41;5092760;28;20202;-73
2023/01/26 02:01:22;;;;;;;0.50;0.50;;;;;;;1.72;100.00;101077.75;5092023;28;20202;-75
2023/01/26 02:03:52;;;;;;;1.17;1.17;;;;;;;1.69;100.00;101082.69;5092493;28;20190;-73
2023/01/26 02:06:22;;;;;;;0.70;0.70;;;;;;;1.73;100.00;101074.44;5103592;28;20637;-74
2023/01/26 02:08:52;;;;;;;0.70;0.70;;;;;;;1.84;100.00;101086.25;5110268;28;20224;-74
2023/01/26 02:11:23;;;;;;;1.30;1.30;;;;;;;1.94;100.00;101083.50;5094737;28;20200;-74
2023/01/26 02:13:50;;;;;;;0.73;0.73;;;;;;;2.00;100.00;101082.22;5091965;28;20190;-74
2023/01/26 02:16:18;;;;;;;0.90;0.90;;;;;;;2.02;100.00;101082.34;5094125;28;20198;-74
2023/01/26 02:18:46;;;;;;;1.80;1.70;;;;;;;1.83;100.00;101074.25;5091984;28;20577;-73
2023/01/26 02:21:16;;;;;;;0.80;0.80;;;;;;;1.72;100.00;101047.09;5091838;28;20598;-74
2023/01/26 02:23:54;;;;;;;0.60;0.60;;;;;;;1.49;100.00;101009.84;5091753;28;20217;-73
2023/01/26 02:26:24;;;;;;;1.00;1.00;;;;;;;1.48;100.00;101024.28;5100727;28;20198;-74
2023/01/26 02:28:52;;;;;;;1.80;1.77;;;;;;;1.48;100.00;101046.38;5092506;28;20263;-73
2023/01/26 02:31:18;;;;;;;3.27;3.07;;;;;;;1.38;100.00;101042.34;5095962;28;20744;-72
2023/01/26 02:33:46;;;;;;;1.60;1.60;;;;;;;1.20;100.00;101012.13;5108917;28;20236;-73
2023/01/26 02:36:19;;;;;;;0.70;0.70;;;;;;;1.43;100.00;101038.41;5105548;28;20194;-74
2023/01/26 02:38:53;;;;;;;0.70;0.70;;;;;;;1.46;100.00;101030.06;5090931;28;20202;-74
2023/01/26 02:44:06;;;;;;;3.13;2.80;;;;;;;1.49;100.00;101017.50;5090273;28;20206;-73
2023/01/26 02:46:33;;;;;;;0.70;0.70;;;;;;;1.46;100.00;101015.59;5091516;28;20212;-74
2023/01/26 02:51:43;;;;;;;0.80;0.80;;;;;;;1.30;100.00;100984.72;5111287;28;20670;-74
2023/01/26 02:55:21;;;;;;;0.90;0.90;;;;;;;1.33;100.00;100996.81;5104413;28;20581;-74
2023/01/26 02:56:57;;;;;;;18.23;16.63;;;;;;;1.19;100.00;100995.00;5105944;28;20223;-73
2023/01/26 02:59:25;;;;;;;1.20;1.20;;;;;;;1.33;100.00;100991.72;5111551;28;20610;-74
2023/01/26 03:01:53;;;;;;;0.63;0.63;;;;;;;1.30;100.00;100989.84;5111201;28;20228;-73
2023/01/26 03:04:20;;;;;;;3.37;1.90;;;;;;;1.20;100.00;100977.25;5111033;28;20266;-73
2023/01/26 03:06:46;;;;;;;0.90;0.90;;;;;;;1.24;100.00;100978.34;5098747;28;20190;-73
2023/01/26 03:09:13;;;;;;;0.90;0.90;;;;;;;1.18;100.00;100976.25;5048723;28;20201;-73
2023/01/26 03:11:41;;;;;;;0.97;0.97;;;;;;;1.33;100.00;100973.81;5111443;28;20220;-74
2023/01/26 03:14:09;;;;;;;0.60;0.60;;;;;;;1.32;100.00;100970.38;5061655;28;20285;-73
2023/01/26 03:16:37;;;;;;;0.90;0.90;;;;;;;1.47;100.00;100979.06;5102472;28;20246;-74
2023/01/26 03:27:28;;;;;;;0.80;0.80;;;;;;;1.20;100.00;100969.59;5063292;28;20232;-73
2023/01/26 03:29:55;;;;;;;4.13;3.27;;;;;;;1.22;100.00;100955.25;5108728;28;20197;-73
2023/01/26 03:32:23;;;;;;;1.40;1.40;;;;;;;1.39;100.00;100959.78;5101187;28;20190;-74
2023/01/26 03:34:50;;;;;;;0.70;0.70;;;;;;;1.30;100.00;100954.09;5107591;28;20233;-73
2023/01/26 03:37:21;;;;;;;0.97;0.97;;;;;;;1.32;100.00;100937.16;5075314;28;20197;-73
2023/01/26 03:56:23;;;;;;;0.80;0.80;;;;;;;1.24;100.00;100925.59;5100256;28;20209;-72
2023/01/26 03:58:51;;;;;;;3.33;3.07;;;;;;;1.51;100.00;100923.91;5090679;28;20229;-73
2023/01/26 04:01:20;;;;;;;1.00;1.00;;;;;;;1.40;100.00;100909.56;5090217;28;20206;-73
2023/01/26 04:09:22;;;;;;;1.00;1.00;;;;;;;1.32;100.00;100932.06;5100296;28;20698;-74
2023/01/26 04:11:49;;;;;;;0.80;0.80;;;;;;;1.50;100.00;100900.03;5104869;28;20772;-73
2023/01/26 04:22:39;;;;;;;2.93;2.77;;;;;;;1.50;100.00;100917.03;5094378;28;20212;-76
2023/01/26 04:25:07;;;;;;;1.10;1.10;;;;;;;1.42;100.00;100923.34;5105777;28;20195;-76
2023/01/26 04:27:34;;;;;;;0.60;0.60;;;;;;;1.42;100.00;100924.25;5061654;28;20631;-76
2023/01/26 04:30:00;;;;;;;0.80;0.80;;;;;;;1.41;100.00;100925.00;5106128;28;20280;-77
2023/01/26 04:32:27;;;;;;;0.70;0.70;;;;;;;1.34;100.00;100912.63;5108273;28;20703;-75
2023/01/26 04:34:55;;;;;;;0.80;0.80;;;;;;;1.26;100.00;100893.34;5106209;28;20277;-77
2023/01/26 04:37:22;;;;;;;1.60;1.50;;;;;;;1.37;100.00;100910.28;5110450;28;20197;-77
2023/01/26 04:39:49;;;;;;;2.27;2.17;;;;;;;1.20;100.00;100895.53;5096543;28;20582;-74
2023/01/26 04:42:16;;;;;;;0.90;0.90;;;;;;;1.25;100.00;100886.47;5075755;28;20232;-75
2023/01/26 04:44:43;;;;;;;0.80;0.80;;;;;;;1.29;100.00;100900.31;5101778;28;20196;-76
2023/01/26 04:47:09;;;;;;;0.63;0.63;;;;;;;0.80;100.00;100828.22;5111215;28;20266;-75
2023/01/26 04:49:36;;;;;;;0.80;0.80;;;;;;;1.31;100.00;100879.22;5111481;28;20710;-76
2023/01/26 04:52:05;;;;;;;1.50;1.50;;;;;;;1.29;100.00;100873.13;5111144;28;20276;-77
2023/01/26 04:54:31;;;;;;;1.73;1.70;;;;;;;1.43;100.00;100899.53;5104167;28;20213;-75
2023/01/26 04:56:58;;;;;;;0.67;0.67;;;;;;;1.38;100.00;100895.81;5114065;28;20193;-75
2023/01/26 04:59:25;;;;;;;0.67;0.67;;;;;;;1.47;100.00;100892.19;5113633;28;20258;-75
2023/01/26 05:01:52;;;;;;;0.80;0.80;;;;;;;1.50;100.00;100881.25;5097058;28;20194;-76
2023/01/26 05:04:18;;;;;;;0.80;0.80;;;;;;;1.48;100.00;100899.06;5106256;28;20217;-77
2023/01/26 05:06:45;;;;;;;1.90;1.80;;;;;;;1.20;100.00;100867.44;5093717;28;20213;-74
2023/01/26 05:09:13;;;;;;;1.73;1.73;;;;;;;1.17;100.00;100863.81;5106376;28;20233;-74
2023/01/26 05:11:40;;;;;;;1.00;1.00;;;;;;;1.27;100.00;100892.59;5113788;28;20201;-74
2023/01/26 05:14:07;;;;;;;0.70;0.70;;;;;;;1.26;100.00;100890.81;5099617;28;20557;-74
2023/01/26 05:16:34;;;;;;;0.77;0.77;;;;;;;1.32;100.00;100891.19;5116005;28;20642;-76
2023/01/26 05:19:00;;;;;;;0.87;0.87;;;;;;;1.34;100.00;100889.63;5112676;28;20198;-76
2023/01/26 05:21:27;;;;;;;0.50;0.50;;;;;;;1.30;100.00;100866.34;5098540;28;20227;-76
2023/01/26 05:23:55;;;;;;;0.90;0.90;;;;;;;1.37;100.00;100884.72;5102322;28;20186;-75
2023/01/26 05:26:23;;;;;;;0.87;0.87;;;;;;;1.33;100.00;100882.75;5093456;28;20206;-76
2023/01/26 05:28:50;;;;;;;0.60;0.60;;;;;;;1.21;100.00;100871.75;5097968;28;20220;-76
2023/01/26 05:31:16;;;;;;;0.70;0.70;;;;;;;1.21;100.00;100879.44;5099886;28;20623;-76
2023/01/26 05:33:43;;;;;;;0.70;0.70;;;;;;;1.04;100.00;100879.97;5036277;28;20603;-75
2023/01/26 05:36:10;;;;;;;1.30;1.30;;;;;;;1.11;100.00;100866.81;5037345;28;20562;-75
2023/01/26 05:38:37;;;;;;;0.70;0.70;;;;;;;1.15;100.00;100863.69;5068176;28;20194;-75
2023/01/26 05:41:04;;;;;;;0.60;0.60;;;;;;;1.16;100.00;100865.47;5071890;28;20195;-76
2023/01/26 05:43:32;;;;;;;0.70;0.70;;;;;;;1.25;100.00;100860.94;5070626;28;20257;-77
2023/01/26 05:45:59;;;;;;;2.00;1.60;;;;;;;1.33;100.00;100863.97;5053658;28;20196;-77
2023/01/26 05:48:25;;;;;;;8.60;2.87;;;;;;;1.24;100.00;100831.09;5060301;28;20231;-76
2023/01/26 05:50:55;;;;;;;1.23;1.23;;;;;;;1.28;100.00;100853.50;5072102;28;20206;-75
2023/01/26 05:53:21;;;;;;;1.50;1.43;;;;;;;1.29;100.00;100816.03;5072217;28;20666;-76
2023/01/26 05:55:48;;;;;;;0.80;0.80;;;;;;;1.33;100.00;100841.88;5053459;28;20667;-75
2023/01/26 05:58:15;;;;;;;0.70;0.70;;;;;;;1.39;100.00;100849.91;5066041;28;20218;-76
2023/01/26 06:00:43;;;;;;;0.70;0.70;;;;;;;1.24;100.00;100848.97;5071485;28;20195;-75
2023/01/26 06:03:10;;;;;;;0.73;0.73;;;;;;;1.28;100.00;100845.84;5072016;28;20210;-74
2023/01/26 06:05:37;;;;;;;0.60;0.60;;;;;;;1.33;100.00;100838.44;5068586;28;20256;-74
2023/01/26 06:08:04;;;;;;;1.13;1.13;;;;;;;1.32;100.00;100845.22;5071852;28;20219;-75
2023/01/26 06:10:31;;;;;;;0.60;0.60;;;;;;;1.23;100.00;100849.75;5061973;28;20226;-74
2023/01/26 06:12:58;;;;;;;0.80;0.80;;;;;;;1.18;100.00;100833.22;5064201;28;20681;-77
2023/01/26 06:15:24;;;;;;;0.80;0.80;;;;;;;1.35;100.00;100840.31;5071906;28;20203;-78
2023/01/26 06:17:53;;;;;;;0.90;0.90;;;;;;;1.38;100.00;100816.63;5052799;28;20203;-81
2023/01/26 06:20:19;;;;;;;0.60;0.60;;;;;;;1.44;100.00;100825.56;5051833;28;20642;-79
2023/01/26 06:22:46;;;;;;;0.60;0.60;;;;;;;1.36;100.00;100813.09;5054068;28;20195;-76
2023/01/26 06:25:13;;;;;;;0.87;0.87;;;;;;;1.54;100.00;100805.69;5069288;28;20562;-76
2023/01/26 06:27:40;;;;;;;0.80;0.80;;;;;;;1.43;100.00;100808.47;5067330;28;20585;-77
2023/01/26 06:30:09;;;;;;;1.60;1.47;;;;;;;1.35;100.00;100809.66;5060866;28;20215;-75
2023/01/26 06:32:36;;;;;;;0.60;0.60;;;;;;;1.32;100.00;100804.34;5071275;28;20199;-77
2023/01/26 06:35:05;;;;;;;1.00;1.00;;;;;;;1.32;100.00;100795.81;5095773;28;20225;-75
2023/01/26 06:37:32;;;;;;;1.40;1.40;;;;;;;1.30;100.00;100787.16;5097341;28;20659;-75
2023/01/26 06:39:59;;;;;;;1.63;1.63;;;;;;;1.25;100.00;100779.19;5109952;28;20301;-74
2023/01/26 06:42:26;;;;;;;4.10;3.90;;;;;;;1.27;100.00;100785.31;5074598;28;20296;-76
2023/01/26 06:44:53;;;;;;;0.77;0.77;;;;;;;1.28;100.00;100788.75;5111677;28;20225;-75
2023/01/26 06:47:19;;;;;;;0.70;0.70;;;;;;;1.44;100.00;100779.56;5111727;28;20723;-77
2023/01/26 06:49:46;;;;;;;0.70;0.70;;;;;;;1.28;100.00;100781.97;5096927;28;20221;-74
2023/01/26 06:52:27;;;;;;;0.67;0.67;;;;;;;1.39;100.00;100768.16;5101319;28;20199;-75
2023/01/26 06:54:54;;;;;;;2.13;2.03;;;;;;;1.27;100.00;100739.34;5108553;28;20236;-76
2023/01/26 06:57:21;;;;;;;0.60;0.60;;;;;;;1.37;100.00;100763.78;5111488;28;20669;-75
2023/01/26 06:59:49;;;;;;;0.80;0.80;;;;;;;1.40;100.00;100769.06;5096795;28;20699;-75
2023/01/26 07:02:18;;;;;;;1.10;1.10;;;;;;;1.35;100.00;100742.38;5111151;28;20283;-75
2023/01/26 07:04:45;;;;;;;3.73;3.43;;;;;;;1.55;100.00;100764.91;5111178;28;20198;-75
2023/01/26 07:07:12;;;;;;;5.07;3.47;;;;;;;1.39;100.00;100765.63;5111220;28;20208;-75
2023/01/26 07:09:40;;;;;;;0.97;0.97;;;;;;;1.58;100.00;100767.66;5111001;28;20225;-75
2023/01/26 07:12:07;;;;;;;7.20;4.03;;;;;;;1.38;100.00;100761.31;5111185;28;20721;-74
2023/01/26 07:14:33;;;;;;;1.53;1.50;;;;;;;1.49;100.00;100761.97;5110890;28;20707;-75
2023/01/26 07:17:01;;;;;;;1.27;1.27;;;;;;;1.58;100.00;100770.19;5096647;28;20202;-74
2023/01/26 07:19:29;;;;;;;0.90;0.90;;;;;;;1.47;100.00;100723.56;5110844;28;20289;-75
2023/01/26 07:21:56;;;;;;;2.20;2.10;;;;;;;1.68;100.00;100774.19;5110682;28;20224;-75
2023/01/26 07:24:23;;;;;;;0.80;0.80;;;;;;;1.88;100.00;100773.75;5058202;28;20229;-73
2023/01/26 07:26:51;;;;;;;0.80;0.80;;;;;;;1.75;100.00;100750.81;5110866;28;20197;-74
2023/01/26 07:29:18;;;;;;;0.60;0.60;;;;;;;1.84;100.00;100772.69;5091031;28;20230;-76
2023/01/26 07:31:44;;;;;;;0.80;0.80;;;;;;;1.77;100.00;100775.66;5090712;28;20209;-75
2023/01/26 07:34:12;;;;;;;1.37;1.37;;;;;;;1.52;100.00;100745.94;5090902;28;20237;-76
2023/01/26 07:36:38;;;;;;;1.40;1.40;;;;;;;1.71;100.00;100767.59;5090588;28;20201;-76
2023/01/26 07:39:06;;;;;;;2.87;2.67;;;;;;;1.53;100.00;100747.72;5090936;28;20206;-75
2023/01/26 07:41:32;;;;;;;0.80;0.80;;;;;;;1.69;100.00;100770.84;5095359;28;20669;-76
2023/01/26 07:44:01;;;;;;;0.80;0.80;;;;;;;1.54;100.00;100735.03;5097288;28;20715;-75
2023/01/26 07:46:27;;;;;;;1.27;1.27;;;;;;;1.67;100.00;100762.22;5097404;28;20279;-76
2023/01/26 07:48:54;;;;;;;2.50;2.40;;;;;;;1.80;100.00;100759.59;5097466;28;20780;-76
2023/01/26 07:51:21;;;;;;;1.23;1.23;;;;;;;1.68;100.00;100761.41;5097109;28;20230;-73
2023/01/26 07:53:48;;;;;;;0.77;0.77;;;;;;;1.84;100.00;100754.78;5097625;28;20212;-76
2023/01/26 07:56:18;;;;;;;0.80;0.80;;;;;;;1.58;100.00;100730.97;5097304;28;20235;-75
2023/01/26 07:58:49;;;;;;;1.80;1.70;;;;;;;1.81;100.00;100762.28;5097248;28;20748;-75
2023/01/26 08:01:18;;;;;;;0.90;0.90;;;;;;;1.86;100.00;100759.97;5097278;28;20216;-75
2023/01/26 08:03:45;;;;;;;0.60;0.60;;;;;;;1.73;100.00;100750.69;5045201;28;20201;-76
2023/01/26 08:06:13;;;;;;;0.70;0.70;;;;;;;1.78;100.00;100748.44;5097535;28;20201;-76
2023/01/26 08:08:40;;;;;;;1.00;1.00;;;;;;;1.62;100.00;100744.03;5096816;28;20723;-73
2023/01/26 08:11:08;;;;;;;1.03;1.03;;;;;;;1.82;100.00;100745.25;5097336;28;20712;-76
2023/01/26 08:13:35;;;;;;;0.60;0.60;;;;;;;2.11;100.00;100741.84;5096981;28;20597;-75
2023/01/26 08:16:03;;;;;;;0.70;0.70;;;;;;;1.97;100.00;100733.38;5097207;28;20221;-75
2023/01/26 08:18:32;;;;;;;0.80;0.80;;;;;;;1.95;100.00;100737.53;5097178;28;20208;-75
2023/01/26 08:20:59;;;;;;;0.80;0.80;;;;;;;1.81;100.00;100725.59;5101170;28;20198;-75
2023/01/26 08:23:26;;;;;;;0.70;0.70;;;;;;;1.83;100.00;100731.66;5100216;28;20240;-75
2023/01/26 08:25:52;;;;;;;0.57;0.57;;;;;;;1.80;100.00;100718.72;5103489;28;20205;-75
2023/01/26 08:28:20;;;;;;;3.47;3.20;;;;;;;1.69;100.00;100710.41;5071953;28;20690;-75
2023/01/26 08:30:46;;;;;;;0.90;0.90;;;;;;;1.70;100.00;100711.28;5117055;28;20205;-75
2023/01/26 08:33:13;;;;;;;0.80;0.80;;;;;;;1.80;100.00;100711.03;5116848;27;20197;-73
2023/01/26 08:35:41;;;;;;;4.43;2.70;;;;;;;1.86;100.00;100675.59;5116898;28;20194;-75
2023/01/26 08:38:08;;;;;;;1.23;1.23;;;;;;;2.00;100.00;100703.75;5116979;27;20205;-74
2023/01/26 08:40:35;;;;;;;0.70;0.70;;;;;;;2.00;100.00;100692.63;5116980;28;20209;-75
2023/01/26 08:43:02;;;;;;;0.80;0.80;;;;;;;1.98;100.00;100684.88;5116759;28;20209;-74
2023/01/26 08:45:30;;;;;;;0.60;0.60;;;;;;;2.00;100.00;100683.28;5116886;27;20208;-73
2023/01/26 08:47:57;;;;;;;1.07;1.07;;;;;;;2.01;100.00;100714.88;5103943;28;20205;-74
2023/01/26 08:50:24;;;;;;;0.97;0.97;;;;;;;1.80;100.00;100672.69;5115928;28;20248;-75
2023/01/26 08:52:55;;;;;;;0.70;0.70;;;;;;;1.95;100.00;100700.06;5114207;28;20212;-74
2023/01/26 08:55:22;;;;;;;3.97;2.17;;;;;;;2.11;100.00;100685.59;5099103;28;20655;-74
2023/01/26 08:57:53;;;;;;;0.77;0.77;;;;;;;2.07;100.00;100681.97;5113537;28;20660;-74
2023/01/26 09:00:22;;;;;;;0.60;0.60;;;;;;;2.32;100.00;100685.16;5113727;28;20292;-73
2023/01/26 09:02:49;;;;;;;5.00;4.57;;;;;;;2.07;100.00;100688.78;5104529;28;20695;-73
2023/01/26 09:05:16;;;;;;;1.80;1.70;;;;;;;2.15;100.00;100693.53;5108408;28;20296;-73
2023/01/26 09:07:43;;;;;;;0.67;0.67;;;;;;;2.00;100.00;100687.53;5113482;28;20202;-73
2023/01/26 09:10:12;;;;;;;1.60;1.60;;;;;;;2.11;100.00;100678.78;5113159;28;20221;-74
2023/01/26 09:12:39;;;;;;;0.60;0.60;;;;;;;2.02;100.00;100634.81;5077334;28;20280;-74
2023/01/26 09:15:07;;;;;;;0.80;0.80;;;;;;;2.31;100.00;100675.72;5113523;28;20283;-73
2023/01/26 09:17:34;;;;;;;0.60;0.60;;;;;;;2.17;100.00;100645.91;5062739;28;20569;-74
2023/01/26 09:20:01;;;;;;;2.03;1.93;;;;;;;2.21;100.00;100652.94;5113204;28;20205;-74
2023/01/26 09:22:28;;;;;;;1.43;1.43;;;;;;;2.24;100.00;100658.25;5112826;28;20205;-73
2023/01/26 09:24:55;;;;;;;0.60;0.60;;;;;;;2.42;100.00;100659.31;5112936;28;20205;-74
2023/01/26 09:27:23;;;;;;;2.63;2.40;;;;;;;2.35;100.00;100613.72;5112017;28;20676;-74
2023/01/26 09:29:51;;;;;;;1.93;1.83;;;;;;;2.48;100.00;100639.16;5099007;28;20217;-74
2023/01/26 09:32:18;;;;;;;0.70;0.70;;;;;;;2.44;100.00;100642.34;5113155;28;20197;-74
2023/01/26 09:34:44;;;;;;;0.60;0.60;;;;;;;2.45;100.00;100635.56;5093593;28;20336;-73
2023/01/26 09:37:11;;;;;;;0.90;0.80;;;;;;;2.34;100.00;100614.50;5103382;28;20204;-74
2023/01/26 09:39:38;;;;;;;0.70;0.70;;;;;;;2.39;100.00;100618.16;5112653;28;20212;-73
2023/01/26 09:42:26;;;;;;;0.70;0.70;;;;;;;2.53;100.00;100607.84;5112738;28;20201;-75
2023/01/26 09:45:02;;;;;;;0.80;0.80;;;;;;;2.76;100.00;100605.72;5112458;28;20703;-73
2023/01/26 09:47:36;;;;;;;0.70;0.70;;;;;;;2.50;100.00;100606.84;5056625;28;20201;-73
2023/01/26 09:50:10;;;;;;;0.53;0.53;;;;;;;2.42;100.00;100591.91;5111004;28;20224;-73
2023/01/26 09:52:45;;;;;;;0.80;0.80;;;;;;;2.49;100.00;100600.00;5112776;28;20197;-73
2023/01/26 09:55:16;;;;;;;1.10;1.10;;;;;;;2.76;100.00;100559.63;5112393;28;20201;-76
2023/01/26 09:57:49;;;;;;;0.77;0.77;;;;;;;3.00;100.00;100576.28;5112347;28;20193;-74
2023/01/26 10:00:21;;;;;;;1.63;1.53;;;;;;;2.84;100.00;100576.31;5112116;28;20198;-75
2023/01/26 10:03:00;;;;;;;0.70;0.70;;;;;;;2.90;100.00;100603.91;5112286;28;20204;-75
2023/01/26 10:05:36;;;;;;;0.90;0.90;;;;;;;2.87;100.00;100586.69;5111218;28;20209;-75
2023/01/26 10:08:04;;;;;;;0.93;0.93;;;;;;;2.73;100.00;100574.84;5112282;28;20201;-75
2023/01/26 10:10:39;;;;;;;0.60;0.60;;;;;;;2.98;100.00;100603.53;5097586;28;20683;-75
2023/01/26 10:13:09;;;;;;;0.73;0.73;;;;;;;2.78;100.00;100575.09;5112005;28;20209;-75
2023/01/26 10:15:38;;;;;;;0.77;0.77;;;;;;;2.90;100.00;100604.78;5112023;28;20197;-75
2023/01/26 10:18:08;;;;;;;0.50;0.50;;;;;;;3.03;100.00;100596.09;5111934;28;20194;-75
2023/01/26 10:20:39;;;;;;;0.70;0.70;;;;;;;2.99;100.00;100583.91;5111782;28;20548;-76
2023/01/26 10:23:12;;;;;;;0.80;0.80;;;;;;;3.14;100.00;100589.81;5111871;28;20202;-75
2023/01/26 10:25:41;;;;;;;0.50;0.50;;;;;;;2.90;100.00;100575.72;5111768;28;20225;-77
2023/01/26 10:28:15;;;;;;;1.70;1.63;;;;;;;2.86;100.00;100540.50;5101659;28;20201;-74
2023/01/26 10:30:43;;;;;;;0.70;0.70;;;;;;;2.99;100.00;100559.19;5104998;28;20220;-75
2023/01/26 10:33:16;;;;;;;0.97;0.97;;;;;;;3.05;100.00;100544.91;5111720;28;20204;-74
2023/01/26 10:35:43;;;;;;;0.53;0.53;;;;;;;2.98;100.00;100525.81;5111622;28;20652;-74
2023/01/26 10:38:39;;;;;;;0.70;0.70;;;;;;;3.12;100.00;100540.19;5111369;28;20198;-75
2023/01/26 10:41:16;;;;;;;0.70;0.70;;;;;;;3.36;100.00;100536.31;5097135;28;20203;-73
2023/01/26 10:43:51;;;;;;;1.23;1.23;;;;;;;3.33;100.00;100530.16;5111287;28;20288;-74
2023/01/26 10:46:25;;;;;;;0.70;0.70;;;;;;;3.54;100.00;100528.69;5111329;28;20204;-75
2023/01/26 10:48:53;;;;;;;0.43;0.43;;;;;;;3.54;100.00;100522.66;5111610;28;20634;-74
2023/01/26 10:51:25;;;;;;;0.80;0.80;;;;;;;3.43;100.00;100492.25;5111527;28;20265;-74
2023/01/26 10:54:14;;;;;;;0.90;0.90;;;;;;;3.60;100.00;100520.44;5112058;28;20201;-76
2023/01/26 10:56:44;;;;;;;1.97;1.83;;;;;;;3.53;100.00;100503.88;5117017;28;20223;-77
2023/01/26 10:59:21;;;;;;;0.97;0.97;;;;;;;3.56;100.00;100498.88;5112158;28;20189;-77
2023/01/26 11:01:56;;;;;;;1.20;1.20;;;;;;;3.49;100.00;100482.34;5110978;28;20204;-75
2023/01/26 11:04:23;;;;;;;0.60;0.60;;;;;;;3.32;100.00;100460.09;5111165;28;20192;-75
2023/01/26 11:06:50;;;;;;;1.33;1.33;;;;;;;3.29;100.00;100436.00;5110907;28;20245;-75
2023/01/26 11:09:23;;;;;;;0.60;0.60;;;;;;;3.56;100.00;100470.69;5110909;28;20210;-75
2023/01/26 11:12:01;;;;;;;0.87;0.87;;;;;;;3.49;100.00;100441.31;5111809;28;20201;-75
2023/01/26 11:14:31;;;;;;;0.50;0.50;;;;;;;3.77;100.00;100470.84;5117803;28;20295;-78
2023/01/26 11:17:14;;;;;;;0.83;0.83;;;;;;;3.80;100.00;100474.44;5082373;28;20655;-77
2023/01/26 11:19:57;;;;;;;0.70;0.70;;;;;;;3.76;100.00;100462.25;5117081;28;20287;-76
2023/01/26 11:22:33;;;;;;;0.93;0.93;;;;;;;3.48;100.00;100448.91;5105731;28;20197;-74
2023/01/26 11:25:11;;;;;;;0.70;0.70;;;;;;;3.52;100.00;100471.34;5102905;28;20591;-73
2023/01/26 11:27:51;;;;;;;0.70;0.70;;;;;;;3.53;100.00;100459.41;5055874;28;20653;-74
2023/01/26 11:30:40;;;;;;;0.70;0.70;;;;;;;3.67;100.00;100460.97;5090690;28;20780;-75
2023/01/26 11:33:17;;;;;;;0.60;0.60;;;;;;;3.43;100.00;100452.94;5090743;28;20190;-75
2023/01/26 11:35:52;;;;;;;0.97;0.97;;;;;;;3.36;100.00;100443.19;5090388;28;20662;-75
2023/01/26 11:38:33;;;;;;;0.40;0.40;;;;;;;3.52;100.00;100443.16;5090617;28;20585;-75
2023/01/26 11:41:13;;;;;;;0.70;0.70;;;;;;;3.48;100.00;100438.66;5090471;28;20197;-75
2023/01/26 11:43:59;;;;;;;0.70;0.70;;;;;;;3.37;100.00;100439.81;5042530;28;20205;-73
2023/01/26 11:46:51;;;;;;;0.90;0.90;;;;;;;3.27;100.00;100412.88;5090871;28;20208;-74
2023/01/26 11:49:32;;;;;;;0.80;0.80;;;;;;;3.27;100.00;100423.13;5090670;28;20204;-73
2023/01/26 11:52:09;;;;;;;1.23;1.23;;;;;;;3.25;100.00;100399.09;5090527;28;20202;-73
2023/01/26 11:54:52;;;;;;;1.30;1.30;;;;;;;3.31;100.00;100409.66;5090495;28;20197;-73
2023/01/26 11:57:26;;;;;;;0.77;0.77;;;;;;;3.40;100.00;100392.16;5090565;28;20611;-75
2023/01/26 11:59:57;;;;;;;0.90;0.90;;;;;;;3.54;100.00;100397.94;5090624;28;20263;-75
2023/01/26 12:02:29;;;;;;;0.70;0.70;;;;;;;3.48;100.00;100397.66;5090312;28;20189;-75
2023/01/26 12:05:02;;;;;;;1.13;1.13;;;;;;;3.52;100.00;100396.13;5090473;28;20197;-74
2023/01/26 12:07:31;;;;;;;2.00;1.90;;;;;;;3.59;100.00;100400.72;5090330;28;20223;-76
2023/01/26 12:10:02;;;;;;;7.93;2.77;;;;;;;3.57;100.00;100394.66;5090509;28;20241;-75
2023/01/26 12:12:36;;;;;;;0.83;0.83;;;;;;;3.35;100.00;100359.44;5090373;28;20191;-73
2023/01/26 12:15:09;;;;;;;1.67;1.67;;;;;;;3.34;100.00;100373.94;5038263;28;20209;-73
2023/01/26 12:17:44;;;;;;;1.50;1.50;;;;;;;3.41;100.00;100369.97;5090086;28;20586;-73
2023/01/26 12:20:29;;;;;;;2.07;1.97;;;;;;;3.39;100.00;100359.66;5090448;28;20593;-73